Time;durP1;ratioP1;P1;durP2;ratioP2;P2;SDS_P1;SDS_P2;PMS_P1;PMS_P2;Temp;Humidity;BMP_temperature;BMP_pressure;BME280_temperature;BME280_humidity;BME280_pressure;Samples;Min_cycle;Max_cycle;Signal;HPM_P1;HPM_P2
2022/11/20 00:01:16;;;;;;;21.60;15.52;;;2.40;99.90;;;;;;6250817;23;20221;-81
2022/11/20 00:03:44;;;;;;;26.50;17.65;;;2.40;99.90;;;;;;6250334;23;20222;-82
2022/11/20 00:06:13;;;;;;;31.40;17.70;;;2.50;99.90;;;;;;6252250;23;20178;-84
2022/11/20 00:08:41;;;;;;;21.08;16.27;;;2.50;99.90;;;;;;6251981;23;20167;-85
2022/11/20 00:11:11;;;;;;;24.30;17.17;;;2.50;99.90;;;;;;6253265;23;20175;-84
2022/11/20 00:13:39;;;;;;;21.85;16.75;;;2.60;99.90;;;;;;6255674;23;20650;-84
2022/11/20 00:16:08;;;;;;;23.65;16.95;;;2.50;99.90;;;;;;6256660;23;20186;-82
2022/11/20 00:18:37;;;;;;;24.48;16.40;;;2.60;99.90;;;;;;6257062;23;20163;-85
2022/11/20 00:21:12;;;;;;;20.30;14.30;;;2.70;99.90;;;;;;6258741;23;20194;-83
2022/11/20 00:23:39;;;;;;;23.17;15.68;;;2.70;99.90;;;;;;6258575;23;20657;-85
2022/11/20 00:26:10;;;;;;;22.85;15.38;;;2.80;99.90;;;;;;6263965;23;20170;-84
2022/11/20 00:28:38;;;;;;;22.13;16.45;;;2.80;99.90;;;;;;6260184;23;20931;-83
2022/11/20 00:31:13;;;;;;;22.05;15.63;;;2.70;99.90;;;;;;6257975;23;20180;-84
2022/11/20 00:33:41;;;;;;;25.55;15.75;;;2.80;99.90;;;;;;6254400;23;20240;-83
2022/11/20 00:36:10;;;;;;;22.30;15.75;;;2.90;99.90;;;;;;6256343;23;20163;-83
2022/11/20 00:38:37;;;;;;;16.92;14.68;;;2.90;99.90;;;;;;6252195;23;20244;-82
2022/11/20 00:41:07;;;;;;;25.05;15.98;;;2.90;99.90;;;;;;6252473;23;20163;-84
2022/11/20 00:43:35;;;;;;;22.73;16.20;;;2.80;99.90;;;;;;6251813;23;20271;-83
2022/11/20 00:46:05;;;;;;;23.23;17.20;;;2.80;99.90;;;;;;6250909;23;20160;-85
2022/11/20 00:48:32;;;;;;;23.92;16.25;;;2.80;99.90;;;;;;6250075;23;20199;-85
2022/11/20 00:51:01;;;;;;;20.77;17.60;;;2.90;99.90;;;;;;6248126;23;20250;-84
2022/11/20 00:53:28;;;;;;;25.60;19.60;;;2.70;99.90;;;;;;6248061;23;20697;-84
2022/11/20 00:55:56;;;;;;;24.88;17.45;;;2.70;99.90;;;;;;6250021;23;20205;-85
2022/11/20 00:58:24;;;;;;;22.05;15.95;;;2.70;99.90;;;;;;6252002;23;20489;-86
2022/11/20 01:00:52;;;;;;;22.67;17.35;;;2.70;99.90;;;;;;6250606;23;20191;-85
2022/11/20 01:03:19;;;;;;;24.38;17.77;;;2.80;99.90;;;;;;6251743;23;20277;-83
2022/11/20 01:05:46;;;;;;;24.02;16.92;;;2.80;99.90;;;;;;6250556;23;20170;-83
2022/11/20 01:08:15;;;;;;;22.83;17.85;;;2.80;99.90;;;;;;6251312;23;20164;-86
2022/11/20 01:10:42;;;;;;;23.67;17.90;;;2.70;99.90;;;;;;6252434;23;20190;-84
2022/11/20 01:15:55;;;;;;;28.10;18.88;;;2.60;99.90;;;;;;6251186;23;20186;-83
2022/11/20 01:18:22;;;;;;;25.95;19.30;;;2.60;99.90;;;;;;6250560;23;20181;-84
2022/11/20 01:20:48;;;;;;;24.98;18.63;;;2.50;99.90;;;;;;6249331;23;20166;-84
2022/11/20 01:23:17;;;;;;;24.35;17.55;;;2.50;99.90;;;;;;6250493;23;20195;-85
2022/11/20 01:25:44;;;;;;;26.30;19.27;;;2.50;99.90;;;;;;6250819;23;20238;-84
2022/11/20 01:28:11;;;;;;;24.42;18.00;;;2.60;99.90;;;;;;6252451;23;20253;-83
2022/11/20 01:30:38;;;;;;;27.40;18.60;;;2.60;99.90;;;;;;6250642;23;20193;-84
2022/11/20 01:33:05;;;;;;;26.70;19.75;;;2.60;99.90;;;;;;6252022;23;20194;-83
2022/11/20 01:35:32;;;;;;;28.00;16.83;;;2.60;99.90;;;;;;6251102;23;20214;-83
2022/11/20 01:37:58;;;;;;;20.98;17.00;;;2.60;99.90;;;;;;6251686;23;20222;-82
2022/11/20 01:40:27;;;;;;;25.33;17.17;;;2.70;99.90;;;;;;6251083;23;20163;-84
2022/11/20 01:43:21;;;;;;;27.83;17.88;;;2.60;99.90;;;;;;6251649;23;20227;-84
2022/11/20 01:45:58;;;;;;;24.73;17.42;;;2.60;99.90;;;;;;6251124;23;20547;-81
2022/11/20 01:48:29;;;;;;;24.45;16.45;;;2.50;99.90;;;;;;6250890;23;20194;-82
2022/11/20 01:50:59;;;;;;;24.05;17.65;;;2.50;99.90;;;;;;6249592;23;20164;-83
2022/11/20 01:53:31;;;;;;;26.90;18.17;;;2.50;99.90;;;;;;6250650;23;20195;-83
2022/11/20 01:56:02;;;;;;;24.25;16.88;;;2.50;99.90;;;;;;6250417;23;20179;-81
2022/11/20 01:58:33;;;;;;;23.77;16.75;;;2.50;99.90;;;;;;6250178;23;20614;-85
2022/11/20 02:01:01;;;;;;;21.45;15.32;;;2.40;99.90;;;;;;6249943;23;20218;-83
2022/11/20 02:03:30;;;;;;;24.20;16.88;;;2.50;99.90;;;;;;6249689;23;20199;-82
2022/11/20 02:06:01;;;;;;;23.85;16.20;;;2.50;99.90;;;;;;6248433;23;20234;-82
2022/11/20 02:08:29;;;;;;;27.15;15.85;;;2.50;99.90;;;;;;6246054;23;20242;-84
2022/11/20 02:10:56;;;;;;;24.20;16.90;;;2.50;99.90;;;;;;6245245;23;20496;-84
2022/11/20 02:13:44;;;;;;;24.27;16.80;;;2.60;99.90;;;;;;6245477;23;20199;-83
2022/11/20 02:16:15;;;;;;;26.38;16.92;;;2.60;99.90;;;;;;6245130;23;20649;-84
2022/11/20 02:18:42;;;;;;;22.77;15.90;;;2.50;99.90;;;;;;6245942;23;20206;-84
2022/11/20 02:21:15;;;;;;;20.50;16.13;;;2.60;99.90;;;;;;6246794;22;20159;-83
2022/11/20 02:24:03;;;;;;;24.35;15.90;;;2.60;99.90;;;;;;6247198;23;20218;-82
2022/11/20 02:26:32;;;;;;;30.30;16.27;;;2.60;99.90;;;;;;6247609;23;20163;-83
2022/11/20 02:29:01;;;;;;;27.55;17.13;;;2.40;99.90;;;;;;6248053;23;20534;-83
2022/11/20 02:31:28;;;;;;;22.92;16.65;;;2.40;99.90;;;;;;6246859;23;20541;-84
2022/11/20 02:34:00;;;;;;;28.60;17.83;;;2.40;99.90;;;;;;6248200;23;20202;-83
2022/11/20 02:36:29;;;;;;;21.95;14.65;;;2.40;99.90;;;;;;6247899;23;20183;-84
2022/11/20 02:38:57;;;;;;;19.27;14.52;;;2.40;99.90;;;;;;6247368;23;20163;-84
2022/11/20 02:41:32;;;;;;;22.55;16.08;;;2.30;99.90;;;;;;6246702;23;20159;-83
2022/11/20 02:43:58;;;;;;;27.83;19.65;;;2.50;99.90;;;;;;6247569;23;20545;-84
2022/11/20 02:46:26;;;;;;;24.48;17.80;;;2.30;99.90;;;;;;6248803;23;20626;-83
2022/11/20 02:48:52;;;;;;;28.52;20.05;;;2.40;99.90;;;;;;6251079;23;20178;-84
2022/11/20 02:51:20;;;;;;;29.63;19.02;;;2.40;99.90;;;;;;6247672;23;20170;-84
2022/11/20 02:53:47;;;;;;;29.20;19.30;;;2.30;99.90;;;;;;6247701;23;20230;-85
2022/11/20 02:56:17;;;;;;;26.52;18.42;;;2.50;99.90;;;;;;6247103;23;20179;-84
2022/11/20 02:58:44;;;;;;;27.40;17.33;;;2.50;99.90;;;;;;6247936;23;20163;-83
2022/11/20 03:01:10;;;;;;;26.10;18.67;;;2.50;99.90;;;;;;6246923;23;20222;-84
2022/11/20 03:03:37;;;;;;;26.63;18.05;;;2.60;99.90;;;;;;6247748;23;20199;-83
2022/11/20 03:06:05;;;;;;;25.80;18.55;;;2.80;99.90;;;;;;6247845;23;20187;-86
2022/11/20 03:08:31;;;;;;;32.28;18.85;;;2.70;99.90;;;;;;6248619;23;20225;-83
2022/11/20 03:11:03;;;;;;;27.10;17.48;;;2.80;99.90;;;;;;6246676;23;20198;-83
2022/11/20 03:13:32;;;;;;;26.67;17.63;;;2.80;99.90;;;;;;6247484;23;20599;-82
2022/11/20 03:15:59;;;;;;;29.38;18.58;;;2.80;99.90;;;;;;6246876;23;20218;-84
2022/11/20 03:18:29;;;;;;;25.95;17.15;;;2.80;99.90;;;;;;6247629;23;20195;-83
2022/11/20 03:20:59;;;;;;;19.65;14.75;;;2.90;99.90;;;;;;6246376;23;20273;-85
2022/11/20 03:23:26;;;;;;;19.92;15.65;;;2.90;99.90;;;;;;6249927;23;20504;-83
2022/11/20 03:25:53;;;;;;;23.73;15.23;;;2.80;99.90;;;;;;6248728;23;20529;-83
2022/11/20 03:28:20;;;;;;;19.50;17.30;;;2.90;99.90;;;;;;6250144;23;20163;-82
2022/11/20 03:30:48;;;;;;;21.92;15.02;;;2.90;99.90;;;;;;6250618;23;20253;-84
2022/11/20 03:33:16;;;;;;;25.83;15.98;;;2.90;99.90;;;;;;6248216;23;20195;-83
2022/11/20 03:35:43;;;;;;;19.55;15.52;;;2.90;99.90;;;;;;6248933;23;20215;-84
2022/11/20 03:38:11;;;;;;;19.20;14.35;;;2.90;99.90;;;;;;6247751;23;20667;-84
2022/11/20 03:40:38;;;;;;;20.98;13.30;;;2.90;99.90;;;;;;6247466;23;20620;-84
2022/11/20 03:43:05;;;;;;;25.23;14.68;;;3.00;99.90;;;;;;6247760;23;20195;-83
2022/11/20 03:45:32;;;;;;;23.00;13.70;;;3.00;99.90;;;;;;6248046;23;20163;-83
2022/11/20 03:48:00;;;;;;;21.50;13.98;;;3.10;99.90;;;;;;6248663;23;20194;-84
2022/11/20 03:50:27;;;;;;;16.90;13.52;;;2.90;99.90;;;;;;6246901;23;20300;-84
2022/11/20 03:52:54;;;;;;;20.13;12.65;;;3.00;99.90;;;;;;6247879;23;20260;-84
2022/11/20 03:55:21;;;;;;;16.45;11.65;;;3.00;99.90;;;;;;6247680;23;20183;-83
2022/11/20 03:57:48;;;;;;;19.55;11.80;;;3.00;99.90;;;;;;6249729;23;20246;-84
2022/11/20 04:00:16;;;;;;;12.90;11.13;;;3.00;99.90;;;;;;6247289;23;20261;-82
2022/11/20 04:02:43;;;;;;;19.52;12.75;;;3.00;99.90;;;;;;6248388;23;20273;-84
2022/11/20 04:05:11;;;;;;;20.63;11.95;;;3.00;99.90;;;;;;6247890;23;20160;-84
2022/11/20 04:07:38;;;;;;;14.40;11.10;;;3.00;99.90;;;;;;6247416;23;20242;-83
2022/11/20 04:10:06;;;;;;;16.00;10.90;;;2.90;99.90;;;;;;6247208;23;20243;-85
2022/11/20 04:12:34;;;;;;;16.05;10.77;;;3.00;99.90;;;;;;6247211;23;20230;-84
2022/11/20 04:15:01;;;;;;;13.85;10.73;;;3.00;99.90;;;;;;6247417;23;20183;-83
2022/11/20 04:17:28;;;;;;;15.55;11.38;;;3.10;99.90;;;;;;6248164;23;20538;-83
2022/11/20 04:19:55;;;;;;;13.00;9.65;;;3.00;99.90;;;;;;6247613;23;20163;-81
2022/11/20 04:22:24;;;;;;;17.02;11.23;;;2.90;99.90;;;;;;6249011;23;20232;-83
2022/11/20 04:24:51;;;;;;;14.35;10.25;;;3.00;99.90;;;;;;6248620;23;20225;-82
2022/11/20 04:27:18;;;;;;;13.73;9.77;;;3.00;99.90;;;;;;6247949;23;20191;-83
2022/11/20 04:29:45;;;;;;;14.95;10.55;;;3.00;99.90;;;;;;6247280;23;20163;-84
2022/11/20 04:32:11;;;;;;;18.40;10.48;;;3.10;99.90;;;;;;6247081;23;20246;-83
2022/11/20 04:34:38;;;;;;;15.32;9.93;;;3.00;99.90;;;;;;6247732;23;20233;-85
2022/11/20 04:37:05;;;;;;;14.15;10.45;;;3.00;99.90;;;;;;6247297;23;20521;-84
2022/11/20 04:39:34;;;;;;;12.98;8.90;;;2.80;99.90;;;;;;6247621;23;20201;-85
2022/11/20 04:44:45;;;;;;;21.88;11.32;;;3.10;99.90;;;;;;6247832;23;20182;-84
2022/11/20 04:47:12;;;;;;;18.35;10.60;;;3.00;99.90;;;;;;6247623;23;20176;-85
2022/11/20 04:49:39;;;;;;;16.50;10.98;;;3.00;99.90;;;;;;6247935;23;20225;-83
2022/11/20 04:52:12;;;;;;;16.25;9.50;;;3.00;99.90;;;;;;6247948;23;20171;-85
2022/11/20 04:54:40;;;;;;;13.32;11.15;;;2.80;99.90;;;;;;6247969;23;20163;-84
2022/11/20 04:57:07;;;;;;;13.10;10.00;;;2.90;99.90;;;;;;6247115;23;20268;-83
2022/11/20 04:59:34;;;;;;;11.70;9.85;;;2.90;99.90;;;;;;6247387;23;20289;-84
2022/11/20 05:02:01;;;;;;;14.40;10.65;;;2.80;99.90;;;;;;6246920;23;20434;-83
2022/11/20 05:04:28;;;;;;;14.90;10.60;;;2.90;99.90;;;;;;6246957;23;20566;-83
2022/11/20 05:06:55;;;;;;;19.77;10.68;;;2.80;99.90;;;;;;6246785;23;20155;-84
2022/11/20 05:09:22;;;;;;;17.70;10.60;;;2.80;99.90;;;;;;6246557;23;20163;-82
2022/11/20 05:11:52;;;;;;;14.63;9.88;;;2.90;99.90;;;;;;6247610;23;20163;-84
2022/11/20 05:14:19;;;;;;;13.75;10.43;;;3.00;99.90;;;;;;6249064;23;20198;-83
2022/11/20 05:16:46;;;;;;;11.70;7.82;;;3.00;99.90;;;;;;6248146;23;20285;-81
2022/11/20 05:19:13;;;;;;;14.50;9.40;;;3.00;99.90;;;;;;6248750;23;20266;-85
2022/11/20 05:21:40;;;;;;;12.95;9.63;;;3.10;99.90;;;;;;6251464;23;20174;-83
2022/11/20 05:24:07;;;;;;;10.60;8.15;;;3.10;99.90;;;;;;6253839;23;20208;-83
2022/11/20 05:26:34;;;;;;;13.07;9.82;;;3.00;99.90;;;;;;6249154;23;20162;-84
2022/11/20 05:29:02;;;;;;;13.43;9.07;;;3.10;99.90;;;;;;6248013;23;20159;-83
2022/11/20 05:31:29;;;;;;;15.70;9.88;;;3.00;99.90;;;;;;6247381;23;20267;-83
2022/11/20 05:33:57;;;;;;;13.07;10.40;;;3.00;99.90;;;;;;6248612;23;20236;-84
2022/11/20 05:36:25;;;;;;;15.77;10.07;;;3.00;99.90;;;;;;6248437;23;20206;-84
2022/11/20 05:38:52;;;;;;;14.15;10.60;;;3.00;99.90;;;;;;6249416;23;20190;-85
2022/11/20 05:41:21;;;;;;;14.20;8.70;;;2.90;99.90;;;;;;6248210;23;20163;-83
2022/11/20 05:43:49;;;;;;;10.45;8.82;;;2.90;99.90;;;;;;6249412;23;20567;-85
2022/11/20 05:46:20;;;;;;;11.68;10.13;;;3.00;99.90;;;;;;6248003;23;20536;-84
2022/11/20 05:48:47;;;;;;;11.52;8.77;;;2.80;99.90;;;;;;6248204;23;20194;-83
2022/11/20 05:51:18;;;;;;;17.50;10.40;;;2.90;99.90;;;;;;6248013;23;20242;-84
2022/11/20 05:53:45;;;;;;;13.73;9.75;;;3.00;99.90;;;;;;6247850;23;20237;-85
2022/11/20 05:56:13;;;;;;;14.07;9.68;;;2.90;99.90;;;;;;6247278;23;20214;-83
2022/11/20 05:58:41;;;;;;;13.60;9.65;;;3.00;99.90;;;;;;6248015;23;20545;-85
2022/11/20 06:01:09;;;;;;;13.15;9.82;;;3.00;99.90;;;;;;6246828;23;20581;-84
2022/11/20 06:03:38;;;;;;;11.57;10.40;;;3.00;99.90;;;;;;6247391;23;20583;-85
2022/11/20 06:06:06;;;;;;;12.80;9.75;;;2.90;99.90;;;;;;6248924;23;20159;-84
2022/11/20 06:08:35;;;;;;;14.93;10.07;;;2.90;99.90;;;;;;6248811;23;20163;-85
2022/11/20 06:11:06;;;;;;;10.25;9.15;;;3.10;99.90;;;;;;6248372;23;20170;-82
2022/11/20 06:13:35;;;;;;;16.33;9.32;;;3.00;99.90;;;;;;6247653;23;20203;-84
2022/11/20 06:16:02;;;;;;;14.52;10.55;;;3.00;99.90;;;;;;6248481;23;20205;-83
2022/11/20 06:18:30;;;;;;;15.30;11.10;;;3.10;99.90;;;;;;6248346;23;20185;-85
2022/11/20 06:21:03;;;;;;;10.02;7.85;;;3.10;99.90;;;;;;6248476;23;20170;-83
2022/11/20 06:23:31;;;;;;;14.43;9.63;;;3.10;99.90;;;;;;6251427;23;20222;-86
2022/11/20 06:25:59;;;;;;;12.80;9.10;;;3.10;99.90;;;;;;6248602;23;20281;-84
2022/11/20 06:28:26;;;;;;;15.32;11.35;;;3.00;99.90;;;;;;6248446;23;20197;-85
2022/11/20 06:30:53;;;;;;;13.57;9.95;;;2.90;99.90;;;;;;6248560;23;20209;-84
2022/11/20 06:33:20;;;;;;;12.82;10.32;;;2.80;99.90;;;;;;6249353;23;20195;-84
2022/11/20 06:35:47;;;;;;;13.75;9.80;;;2.80;99.90;;;;;;6248542;23;20258;-85
2022/11/20 06:38:15;;;;;;;15.43;9.90;;;2.80;99.90;;;;;;6248817;23;20195;-84
2022/11/20 06:40:42;;;;;;;14.70;9.95;;;2.80;99.90;;;;;;6248944;23;20190;-83
2022/11/20 06:43:10;;;;;;;14.55;9.95;;;2.70;99.90;;;;;;6249085;23;20249;-84
2022/11/20 06:45:38;;;;;;;15.60;10.75;;;2.80;99.90;;;;;;6247865;23;20210;-83
2022/11/20 06:48:05;;;;;;;17.55;12.23;;;2.90;99.90;;;;;;6248021;23;20634;-83
2022/11/20 06:50:32;;;;;;;17.33;10.45;;;3.00;99.90;;;;;;6247824;23;20238;-82
2022/11/20 06:53:05;;;;;;;14.00;10.38;;;3.00;99.90;;;;;;6247227;23;20203;-82
2022/11/20 06:55:33;;;;;;;17.58;10.30;;;2.90;99.90;;;;;;6248016;23;20159;-82
2022/11/20 06:58:01;;;;;;;16.58;12.13;;;2.90;99.90;;;;;;6247989;23;20159;-83
2022/11/20 07:00:28;;;;;;;20.75;13.18;;;2.90;99.90;;;;;;6247241;23;20191;-82
2022/11/20 07:02:55;;;;;;;19.75;12.40;;;2.90;99.90;;;;;;6247241;23;20593;-84
2022/11/20 07:05:26;;;;;;;15.52;12.52;;;2.80;99.90;;;;;;6247102;23;20602;-83
2022/11/20 07:07:55;;;;;;;16.35;10.55;;;2.70;99.90;;;;;;6248493;23;20234;-83
2022/11/20 07:10:22;;;;;;;16.05;10.40;;;2.60;99.90;;;;;;6249387;23;20164;-83
2022/11/20 07:12:52;;;;;;;14.00;10.50;;;2.60;99.90;;;;;;6251362;23;20274;-82
2022/11/20 07:15:20;;;;;;;14.40;9.65;;;2.60;99.90;;;;;;6250646;23;20178;-82
2022/11/20 07:17:47;;;;;;;19.83;11.57;;;2.70;99.90;;;;;;6249592;23;20215;-82
2022/11/20 07:20:16;;;;;;;12.90;8.98;;;2.70;99.90;;;;;;6249629;23;20166;-84
2022/11/20 07:22:44;;;;;;;17.92;10.05;;;2.80;99.90;;;;;;6249027;23;20229;-83
2022/11/20 07:25:11;;;;;;;14.43;10.13;;;2.90;99.90;;;;;;6249878;23;20163;-84
2022/11/20 07:27:38;;;;;;;15.57;10.77;;;3.00;99.90;;;;;;6249653;23;20173;-83
2022/11/20 07:30:07;;;;;;;17.67;11.63;;;3.10;99.90;;;;;;6249817;23;20186;-84
2022/11/20 07:32:34;;;;;;;17.27;11.32;;;3.00;99.90;;;;;;6250126;23;20669;-83
2022/11/20 07:35:03;;;;;;;17.27;12.15;;;3.00;99.90;;;;;;6249474;23;20496;-84
2022/11/20 07:37:29;;;;;;;15.40;11.60;;;2.90;99.90;;;;;;6249541;23;20183;-84
2022/11/20 07:39:56;;;;;;;12.07;9.93;;;2.80;99.90;;;;;;6248739;23;20238;-83
2022/11/20 07:42:26;;;;;;;18.95;10.00;;;2.70;99.90;;;;;;6249436;23;20242;-82
2022/11/20 07:44:54;;;;;;;17.80;12.43;;;2.60;99.90;;;;;;6248660;23;20167;-83
2022/11/20 07:47:23;;;;;;;13.20;9.88;;;2.60;99.90;;;;;;6246929;23;20229;-79
2022/11/20 07:49:49;;;;;;;16.88;11.35;;;2.60;99.90;;;;;;6245614;23;20167;-79
2022/11/20 07:52:16;;;;;;;15.73;11.52;;;2.80;99.90;;;;;;6246562;23;20621;-79
2022/11/20 07:54:43;;;;;;;18.67;11.40;;;2.80;99.90;;;;;;6246895;23;20199;-79
2022/11/20 07:57:10;;;;;;;18.45;12.25;;;2.80;99.90;;;;;;6246916;23;20262;-81
2022/11/20 07:59:38;;;;;;;18.38;12.40;;;2.80;99.90;;;;;;6246691;23;20193;-81
2022/11/20 08:02:05;;;;;;;17.30;11.38;;;2.70;99.90;;;;;;6247095;23;20163;-80
2022/11/20 08:04:36;;;;;;;16.33;11.35;;;2.80;99.90;;;;;;6247867;23;20167;-81
2022/11/20 08:07:04;;;;;;;16.58;12.90;;;2.90;99.90;;;;;;6250110;23;20218;-81
2022/11/20 08:09:32;;;;;;;16.70;11.23;;;2.90;99.90;;;;;;6246641;23;20538;-81
2022/11/20 08:14:45;;;;;;;15.07;11.73;;;2.90;99.90;;;;;;6247399;23;20252;-81
2022/11/20 08:17:12;;;;;;;18.05;12.43;;;3.00;99.90;;;;;;6247010;23;20716;-82
2022/11/20 08:19:40;;;;;;;16.42;11.73;;;3.00;99.90;;;;;;6246507;23;20242;-81
2022/11/20 08:22:07;;;;;;;18.95;13.35;;;2.90;99.90;;;;;;6247088;23;20500;-82
2022/11/20 08:24:35;;;;;;;15.95;11.43;;;3.10;99.90;;;;;;6247163;23;20174;-82
2022/11/20 08:27:02;;;;;;;13.10;11.48;;;3.20;99.90;;;;;;6247611;23;20197;-77
2022/11/20 08:29:29;;;;;;;14.55;11.13;;;3.30;99.90;;;;;;6245556;23;20242;-76
2022/11/20 08:31:56;;;;;;;20.08;11.68;;;3.30;99.90;;;;;;6246297;23;20461;-78
2022/11/20 08:34:23;;;;;;;14.70;10.82;;;3.30;99.90;;;;;;6246097;23;20274;-73
2022/11/20 08:36:51;;;;;;;16.65;10.55;;;3.40;99.90;;;;;;6245482;23;20183;-75
2022/11/20 08:39:18;;;;;;;14.52;10.90;;;3.60;99.90;;;;;;6245773;23;20238;-75
2022/11/20 08:41:45;;;;;;;17.50;10.00;;;3.70;99.90;;;;;;6244567;23;20185;-77
2022/11/20 08:44:12;;;;;;;16.40;11.75;;;3.90;99.90;;;;;;6245845;23;20692;-75
2022/11/20 08:46:43;;;;;;;13.45;10.70;;;4.20;99.90;;;;;;6245938;23;20167;-80
2022/11/20 08:49:12;;;;;;;17.92;12.80;;;4.10;99.90;;;;;;6245923;23;20174;-80
2022/11/20 08:51:41;;;;;;;18.15;12.45;;;4.10;99.90;;;;;;6244907;23;20181;-78
2022/11/20 08:54:09;;;;;;;13.93;11.60;;;4.00;99.90;;;;;;6246753;23;20249;-77
2022/11/20 08:56:36;;;;;;;15.98;10.95;;;4.10;99.90;;;;;;6245721;23;20183;-75
2022/11/20 08:59:04;;;;;;;15.30;11.95;;;4.10;99.90;;;;;;6245996;23;20242;-78
2022/11/20 09:01:33;;;;;;;13.43;10.73;;;3.90;99.90;;;;;;6245647;23;20218;-78
2022/11/20 09:04:00;;;;;;;19.13;11.50;;;4.10;99.90;;;;;;6246019;23;20199;-77
2022/11/20 09:06:27;;;;;;;20.20;11.73;;;4.20;99.90;;;;;;6245026;23;20159;-77
2022/11/20 09:08:55;;;;;;;17.20;11.75;;;4.20;99.90;;;;;;6245802;23;20210;-81
2022/11/20 09:11:24;;;;;;;16.70;11.68;;;4.10;99.90;;;;;;6245286;23;20168;-82
2022/11/20 09:13:52;;;;;;;22.70;13.13;;;4.10;99.90;;;;;;6246147;23;20203;-80
2022/11/20 09:16:18;;;;;;;15.55;11.70;;;4.10;99.90;;;;;;6246278;23;20490;-81
2022/11/20 09:18:45;;;;;;;19.02;12.45;;;3.90;99.90;;;;;;6244721;23;20171;-79
2022/11/20 09:21:19;;;;;;;14.23;10.90;;;3.90;99.90;;;;;;6239256;23;20163;-80
2022/11/20 09:23:46;;;;;;;13.95;10.75;;;4.00;99.90;;;;;;6246131;23;20253;-78
2022/11/20 09:26:14;;;;;;;12.75;10.95;;;4.00;99.90;;;;;;6245653;23;20539;-77
2022/11/20 09:28:51;;;;;;;16.65;10.68;;;4.10;99.90;;;;;;6246141;23;20199;-78
2022/11/20 09:31:23;;;;;;;17.80;11.73;;;4.20;99.90;;;;;;6244574;23;20237;-79
2022/11/20 09:33:50;;;;;;;15.70;11.07;;;4.30;99.90;;;;;;6245416;23;20249;-77
2022/11/20 09:36:18;;;;;;;13.52;11.32;;;4.20;99.90;;;;;;6244870;23;20189;-79
2022/11/20 09:38:45;;;;;;;13.57;10.95;;;4.20;99.90;;;;;;6245621;23;20163;-77
2022/11/20 09:41:36;;;;;;;15.00;11.00;;;4.20;99.90;;;;;;6244856;23;20238;-79
2022/11/20 09:44:18;;;;;;;17.48;13.40;;;4.10;99.90;;;;;;6245893;23;20712;-80
2022/11/20 09:46:54;;;;;;;16.55;11.93;;;4.00;99.90;;;;;;6220766;23;20158;-79
2022/11/20 09:49:33;;;;;;;16.15;11.70;;;3.90;99.90;;;;;;6245175;23;20163;-77
2022/11/20 09:52:02;;;;;;;18.98;12.32;;;3.80;99.90;;;;;;6245032;23;20181;-80
2022/11/20 09:54:32;;;;;;;15.63;11.50;;;3.70;99.90;;;;;;6245495;23;20206;-79
2022/11/20 09:57:02;;;;;;;16.55;12.05;;;3.70;99.90;;;;;;6245310;23;20505;-77
2022/11/20 09:59:36;;;;;;;20.27;13.50;;;3.60;99.90;;;;;;6244520;23;20641;-80
2022/11/20 10:02:15;;;;;;;21.00;13.63;;;3.60;99.90;;;;;;6246020;23;20237;-80
2022/11/20 10:04:48;;;;;;;14.93;12.20;;;3.60;99.90;;;;;;6245589;23;20174;-81
2022/11/20 10:07:20;;;;;;;24.75;15.55;;;3.50;99.90;;;;;;6245173;23;20237;-79
2022/11/20 10:09:53;;;;;;;19.83;13.20;;;3.50;99.90;;;;;;6244644;23;20167;-80
2022/11/20 10:12:26;;;;;;;18.05;13.73;;;3.40;99.90;;;;;;6246043;23;20182;-79
2022/11/20 10:15:13;;;;;;;20.73;14.00;;;3.40;99.90;;;;;;6245170;23;20189;-80
2022/11/20 10:18:01;;;;;;;18.40;13.98;;;3.40;99.90;;;;;;6220923;23;20646;-80
2022/11/20 10:20:33;;;;;;;17.67;13.40;;;3.50;99.90;;;;;;6219339;23;20199;-81
2022/11/20 10:23:24;;;;;;;19.65;14.15;;;3.50;99.90;;;;;;6245690;23;20253;-81
2022/11/20 10:26:00;;;;;;;16.30;13.13;;;3.50;99.90;;;;;;6245375;23;20195;-79
2022/11/20 10:28:42;;;;;;;18.17;14.65;;;3.40;99.90;;;;;;6218724;23;20159;-79
2022/11/20 10:31:26;;;;;;;18.25;13.23;;;3.30;99.90;;;;;;6244500;23;20165;-79
2022/11/20 10:33:55;;;;;;;18.95;13.93;;;3.30;99.90;;;;;;6245705;23;20195;-77
2022/11/20 10:36:27;;;;;;;23.98;15.45;;;3.30;99.90;;;;;;6245665;23;20250;-77
2022/11/20 10:38:59;;;;;;;21.55;15.13;;;3.30;99.90;;;;;;6245659;23;20484;-81
2022/11/20 10:41:29;;;;;;;21.02;15.30;;;3.40;99.90;;;;;;6245458;23;20164;-84
2022/11/20 10:44:04;;;;;;;19.75;15.23;;;3.30;99.90;;;;;;6247071;23;20199;-76
2022/11/20 10:46:39;;;;;;;25.02;18.58;;;3.30;99.90;;;;;;6220561;23;20166;-78
2022/11/20 10:49:12;;;;;;;23.83;17.17;;;3.40;99.90;;;;;;6246684;23;20174;-78
2022/11/20 10:51:50;;;;;;;24.65;17.50;;;3.40;99.90;;;;;;6246051;23;20174;-78
2022/11/20 10:54:25;;;;;;;23.77;16.80;;;3.30;99.90;;;;;;6247105;23;20191;-79
2022/11/20 10:56:54;;;;;;;22.17;15.30;;;3.40;99.90;;;;;;6220524;23;20165;-79
2022/11/20 11:00:03;;;;;;;20.42;14.90;;;3.50;99.90;;;;;;6246659;23;20626;-80
2022/11/20 11:02:40;;;;;;;19.63;14.90;;;3.30;99.90;;;;;;6217121;23;20198;-78
2022/11/20 11:05:16;;;;;;;19.60;15.73;;;3.30;99.90;;;;;;6221034;23;20246;-80
2022/11/20 11:07:45;;;;;;;22.63;15.90;;;3.20;99.90;;;;;;6220628;23;20163;-79
2022/11/20 11:10:18;;;;;;;21.55;15.20;;;3.20;99.90;;;;;;6246178;23;20521;-77
2022/11/20 11:12:47;;;;;;;19.80;13.90;;;3.00;99.90;;;;;;6247245;23;20202;-79
2022/11/20 11:15:25;;;;;;;19.42;14.75;;;3.00;99.90;;;;;;6247358;23;20246;-79
2022/11/20 11:17:53;;;;;;;22.70;16.02;;;3.00;99.90;;;;;;6247530;23;20193;-78
2022/11/20 11:20:22;;;;;;;27.00;16.08;;;3.10;99.90;;;;;;6247025;23;20163;-79
2022/11/20 11:22:51;;;;;;;27.52;14.43;;;3.10;99.90;;;;;;6246641;23;20206;-79
2022/11/20 11:25:24;;;;;;;23.33;16.33;;;3.10;99.90;;;;;;6247774;23;20167;-82
2022/11/20 11:27:52;;;;;;;17.63;14.48;;;3.00;99.90;;;;;;6246403;23;20167;-78
2022/11/20 11:30:21;;;;;;;23.58;17.08;;;2.90;99.90;;;;;;6245585;23;20195;-81
2022/11/20 11:32:47;;;;;;;23.15;16.27;;;3.00;99.90;;;;;;6247035;23;20203;-81
2022/11/20 11:35:28;;;;;;;17.75;15.07;;;3.00;99.90;;;;;;6246967;23;20212;-79
2022/11/20 11:38:06;;;;;;;24.98;17.30;;;3.10;99.90;;;;;;6246383;23;20182;-79
2022/11/20 11:40:36;;;;;;;20.10;14.73;;;3.30;99.90;;;;;;6218683;23;20171;-79
2022/11/20 11:45:04;;;;;;;16.08;12.50;;;3.40;99.90;;;;;;6247534;23;20282;-79
2022/11/20 11:45:56;;;;;;;23.33;13.48;;;3.50;99.90;;;;;;6246199;23;20729;-81
2022/11/20 11:48:23;;;;;;;17.45;14.75;;;3.50;99.90;;;;;;6247193;23;20155;-79
2022/11/20 11:50:52;;;;;;;16.60;12.88;;;3.50;99.90;;;;;;6253917;23;20164;-78
2022/11/20 11:53:20;;;;;;;19.27;14.05;;;3.50;99.90;;;;;;6256292;23;20664;-82
2022/11/20 11:55:54;;;;;;;15.02;12.32;;;3.50;99.90;;;;;;6258915;23;20163;-79
2022/11/20 11:58:41;;;;;;;18.02;12.15;;;3.50;99.90;;;;;;6260766;23;20183;-81
2022/11/20 12:01:18;;;;;;;17.35;12.00;;;3.60;99.90;;;;;;6261608;23;20190;-77
2022/11/20 12:03:56;;;;;;;20.35;14.10;;;3.70;99.90;;;;;;6233217;23;20269;-80
2022/11/20 12:06:26;;;;;;;21.10;12.70;;;3.90;99.90;;;;;;6232031;23;20163;-81
2022/11/20 12:08:58;;;;;;;18.08;11.57;;;4.10;99.90;;;;;;6253299;23;20156;-79
2022/11/20 12:11:34;;;;;;;16.65;11.75;;;4.30;99.90;;;;;;6248407;23;20198;-79
2022/11/20 12:14:11;;;;;;;13.45;10.75;;;4.60;99.90;;;;;;6220593;23;20695;-79
2022/11/20 12:16:42;;;;;;;18.40;12.65;;;4.70;99.90;;;;;;6220714;23;20255;-77
2022/11/20 12:19:12;;;;;;;14.30;9.18;;;4.80;99.90;;;;;;6246064;23;20194;-80
2022/11/20 12:21:52;;;;;;;19.13;11.32;;;4.70;99.90;;;;;;6245846;23;20165;-80
2022/11/20 12:24:48;;;;;;;11.13;8.77;;;4.70;99.90;;;;;;6221291;23;20205;-81
2022/11/20 12:27:42;;;;;;;14.07;9.13;;;4.40;99.90;;;;;;6242285;23;20191;-80
2022/11/20 12:30:12;;;;;;;11.45;9.10;;;4.40;99.90;;;;;;6223189;23;20201;-80
2022/11/20 12:33:04;;;;;;;11.55;8.55;;;4.30;99.90;;;;;;6246395;23;20359;-80
2022/11/20 12:35:52;;;;;;;12.75;10.32;;;4.20;99.90;;;;;;6247374;23;20609;-78
2022/11/20 12:38:55;;;;;;;25.90;15.98;;;4.10;99.90;;;;;;6248447;23;20183;-80
2022/11/20 12:47:33;;;;;;;15.18;9.27;;;4.00;99.90;;;;;;6226815;23;20477;-80
2022/11/20 12:50:09;;;;;;;12.73;8.70;;;4.20;99.90;;;;;;6216885;23;20236;-78
2022/11/20 12:52:43;;;;;;;10.20;7.55;;;4.30;99.90;;;;;;6245765;23;20249;-81
2022/11/20 12:55:24;;;;;;;10.93;8.68;;;4.00;99.90;;;;;;6245447;23;20186;-80
2022/11/20 12:57:56;;;;;;;12.77;9.10;;;3.70;99.90;;;;;;6245718;23;20258;-80
2022/11/20 13:00:24;;;;;;;13.68;10.15;;;3.80;99.90;;;;;;6244063;23;20638;-77
2022/11/20 13:03:25;;;;;;;13.43;8.80;;;3.60;99.90;;;;;;6245710;23;20234;-81
2022/11/20 13:06:00;;;;;;;12.30;9.57;;;3.90;99.90;;;;;;6245510;23;20163;-79
2022/11/20 13:08:32;;;;;;;9.57;8.43;;;4.00;99.90;;;;;;6245624;23;20210;-78